Time;durP1;ratioP1;P1;durP2;ratioP2;P2;SDS_P1;SDS_P2;PMS_P1;PMS_P2;Temp;Humidity;BMP_temperature;BMP_pressure;BME280_temperature;BME280_humidity;BME280_pressure;Samples;Min_cycle;Max_cycle;Signal;HPM_P1;HPM_P2
2022/09/20 00:01:24;;;;;;;7.35;1.58;;;12.90;69.30;;;;;;5020386;28;20348;-67
2022/09/20 00:03:54;;;;;;;7.05;1.90;;;;;;;;;;5014360;28;20044;-67
2022/09/20 00:06:26;;;;;;;8.95;1.73;;;11.80;97.00;;;;;;5022170;28;20045;-67
2022/09/20 00:08:52;;;;;;;9.07;2.90;;;;;;;;;;4993350;28;20064;-67
2022/09/20 00:11:21;;;;;;;9.65;1.98;;;12.50;99.90;;;;;;5011031;28;20046;-67
2022/09/20 00:13:49;;;;;;;11.63;1.88;;;;;;;;;;5015726;28;20500;-67
2022/09/20 00:16:17;;;;;;;9.85;1.67;;;;;;;;;;5011523;28;20026;-67
2022/09/20 00:18:43;;;;;;;8.38;1.70;;;;;;;;;;5015828;28;20033;-67
2022/09/20 00:21:15;;;;;;;10.43;1.73;;;;;;;;;;5011376;28;20034;-67
2022/09/20 00:23:41;;;;;;;9.82;1.88;;;12.30;99.90;;;;;;4992988;28;20044;-67
2022/09/20 00:26:07;;;;;;;7.82;1.60;;;12.60;99.90;;;;;;5011452;28;20466;-68
2022/09/20 00:28:33;;;;;;;11.57;1.73;;;12.30;99.90;;;;;;5010764;28;20038;-67
2022/09/20 00:30:59;;;;;;;9.52;1.70;;;12.70;99.90;;;;;;5010996;28;20033;-67
2022/09/20 00:35:06;;;;;;;6.22;1.30;;;;;;;;;;5015333;28;20034;-67
2022/09/20 00:36:12;;;;;;;11.48;1.90;;;11.70;97.90;;;;;;4989909;28;20042;-67
2022/09/20 00:38:37;;;;;;;5.55;1.33;;;12.40;99.90;;;;;;5010455;28;20088;-68
2022/09/20 00:41:03;;;;;;;7.82;1.80;;;12.30;99.40;;;;;;5009998;28;20034;-67
2022/09/20 00:43:37;;;;;;;9.80;1.90;;;12.20;98.10;;;;;;5010901;28;20445;-67
2022/09/20 00:46:05;;;;;;;7.70;1.58;;;12.20;91.20;;;;;;5009213;28;20073;-68
2022/09/20 00:48:32;;;;;;;7.25;1.55;;;12.50;92.70;;;;;;5010793;28;20037;-67
2022/09/20 00:51:01;;;;;;;7.80;1.75;;;;;;;;;;4998247;28;20053;-67
2022/09/20 00:53:38;;;;;;;9.07;1.55;;;12.30;89.10;;;;;;4992703;28;20042;-67
2022/09/20 00:56:12;;;;;;;11.02;1.70;;;12.40;76.90;;;;;;5010489;28;20045;-67
2022/09/20 00:58:44;;;;;;;6.03;1.40;;;12.30;82.00;;;;;;5010224;28;20041;-67
2022/09/20 01:01:10;;;;;;;5.28;1.55;;;12.20;45.30;;;;;;5010285;28;20045;-68
2022/09/20 01:03:38;;;;;;;8.50;1.20;;;12.00;57.20;;;;;;5010388;28;20046;-68
2022/09/20 01:06:07;;;;;;;7.72;2.40;;;12.60;84.70;;;;;;4992655;28;20049;-68
2022/09/20 01:08:34;;;;;;;10.77;1.30;;;11.60;33.00;;;;;;5009359;28;20041;-68
2022/09/20 01:11:01;;;;;;;7.03;1.40;;;12.50;10.60;;;;;;5010405;28;20057;-68
2022/09/20 01:13:26;;;;;;;6.72;1.30;;;12.50;9.70;;;;;;5010067;28;20073;-68
2022/09/20 01:15:52;;;;;;;7.85;1.50;;;;;;;;;;5010001;28;20123;-68
2022/09/20 01:18:19;;;;;;;7.55;1.27;;;12.20;65.40;;;;;;5009735;28;20030;-68
2022/09/20 01:20:46;;;;;;;10.45;2.10;;;12.30;69.00;;;;;;5010276;28;20380;-68
2022/09/20 01:23:26;;;;;;;6.90;1.40;;;12.10;21.60;;;;;;5011457;28;20393;-67
2022/09/20 01:26:10;;;;;;;6.55;1.20;;;12.50;11.70;;;;;;5022781;28;20042;-68
2022/09/20 01:28:37;;;;;;;5.82;1.25;;;12.70;9.80;;;;;;5009685;28;20121;-67
2022/09/20 01:31:12;;;;;;;8.30;1.33;;;12.80;1.00;;;;;;5002781;28;20049;-67
2022/09/20 01:33:38;;;;;;;;;;;;;;;;;;5015240;28;20042;-67
2022/09/20 01:36:05;;;;;;;9.13;1.40;;;12.00;1.00;;;;;;5010352;28;19917;-67
2022/09/20 01:38:59;;;;;;;6.95;1.20;;;12.80;1.00;;;;;;5010290;28;20060;-67
2022/09/20 01:41:35;;;;;;;6.38;1.10;;;;;;;;;;5014284;28;20033;-67
2022/09/20 01:44:15;;;;;;;7.80;1.17;;;11.70;99.90;;;;;;5005583;28;20061;-67
2022/09/20 01:46:42;;;;;;;4.65;1.15;;;11.80;1.00;;;;;;5009838;28;20042;-68
2022/09/20 01:49:48;;;;;;;4.85;1.17;;;12.20;1.00;;;;;;4990588;28;20079;-68
2022/09/20 01:53:05;;;;;;;5.35;1.45;;;11.90;99.90;;;;;;5010074;28;20527;-68
2022/09/20 01:56:00;;;;;;;5.35;1.40;;;12.40;99.90;;;;;;4967813;28;20074;-67
2022/09/20 01:58:51;;;;;;;6.47;1.75;;;12.30;99.90;;;;;;4907426;28;20193;-67
2022/09/20 02:01:30;;;;;;;5.93;1.20;;;;;;;;;;5007824;28;20022;-67
2022/09/20 02:04:02;;;;;;;4.97;1.30;;;;;;;;;;5009777;28;20069;-68
2022/09/20 02:06:47;;;;;;;8.23;2.00;;;;;;;;;;5009618;28;20412;-68
2022/09/20 02:09:18;;;;;;;4.90;1.17;;;12.60;1.00;;;;;;5011197;28;20045;-68
2022/09/20 02:11:50;;;;;;;6.03;1.30;;;;;;;;;;4992112;28;20100;-68
2022/09/20 02:14:29;;;;;;;4.68;1.65;;;;;;;;;;5018718;28;20198;-68
2022/09/20 02:16:59;;;;;;;10.65;3.58;;;12.50;1.00;;;;;;5024172;28;20044;-68
2022/09/20 02:19:34;;;;;;;5.47;1.48;;;12.40;1.00;;;;;;5013512;28;20165;-68
2022/09/20 02:22:18;;;;;;;;;;;12.50;1.00;;;;;;4993222;28;20049;-68
2022/09/20 02:25:14;;;;;;;6.72;1.27;;;11.80;99.90;;;;;;5018172;28;19970;-68
2022/09/20 02:28:06;;;;;;;7.78;1.45;;;12.30;99.90;;;;;;5012729;28;20408;-69
2022/09/20 02:30:50;;;;;;;4.68;1.17;;;11.60;99.90;;;;;;5009982;28;20065;-70
2022/09/20 02:33:35;;;;;;;8.52;1.55;;;;;;;;;;4995457;28;20046;-70
2022/09/20 02:36:22;;;;;;;7.70;1.58;;;11.50;99.90;;;;;;5012738;28;20125;-69
2022/09/20 02:39:06;;;;;;;4.88;1.27;;;11.20;1.00;;;;;;5012420;28;20152;-69
2022/09/20 02:41:52;;;;;;;6.45;1.45;;;;;;;;;;5025526;28;20487;-69
2022/09/20 02:44:27;;;;;;;5.18;1.20;;;11.30;10.50;;;;;;5010406;28;20039;-69
2022/09/20 02:47:05;;;;;;;5.95;1.15;;;12.00;77.90;;;;;;4994366;28;20510;-70
2022/09/20 02:49:35;;;;;;;7.78;1.42;;;;;;;;;;5012436;28;20045;-69
2022/09/20 02:52:13;;;;;;;4.60;1.27;;;;;;;;;;5012783;28;20042;-69
2022/09/20 02:54:57;;;;;;;9.93;1.60;;;;;;;;;;5020846;28;20040;-69
2022/09/20 02:57:47;;;;;;;6.20;1.40;;;10.60;99.90;;;;;;5012273;28;20376;-69
2022/09/20 03:00:19;;;;;;;5.43;1.27;;;11.30;99.90;;;;;;5007212;28;20311;-69
2022/09/20 03:02:59;;;;;;;5.78;1.20;;;11.30;1.00;;;;;;5003704;28;20120;-69
2022/09/20 03:05:30;;;;;;;6.45;1.55;;;;;;;;;;5019073;28;20566;-69
2022/09/20 03:08:18;;;;;;;7.43;1.75;;;;;;;;;;5010770;28;20492;-69
2022/09/20 03:10:56;;;;;;;6.60;1.50;;;11.90;85.30;;;;;;5012359;28;20049;-69
2022/09/20 03:13:48;;;;;;;8.00;1.65;;;11.20;99.90;;;;;;5014226;28;20415;-69
2022/09/20 03:16:43;;;;;;;13.05;2.47;;;11.60;99.90;;;;;;5017819;28;20120;-69
2022/09/20 03:19:10;;;;;;;;;;;;;;;;;;5012523;28;20042;-67
2022/09/20 03:22:08;;;;;;;7.63;1.73;;;11.90;99.90;;;;;;5019953;28;19925;-67
2022/09/20 03:24:46;;;;;;;6.97;1.73;;;11.00;99.90;;;;;;5018748;28;20100;-67
2022/09/20 03:27:24;;;;;;;6.97;1.50;;;;;;;;;;5012206;28;20107;-67
2022/09/20 03:30:17;;;;;;;7.68;1.63;;;11.50;99.90;;;;;;5009908;28;20060;-67
2022/09/20 03:33:10;;;;;;;3.38;1.10;;;11.50;99.90;;;;;;5022171;28;20446;-67
2022/09/20 03:36:07;;;;;;;8.45;1.50;;;11.80;99.90;;;;;;5010560;28;20037;-67
2022/09/20 03:38:48;;;;;;;4.13;1.50;;;11.30;99.90;;;;;;5015141;28;20049;-67
2022/09/20 03:41:33;;;;;;;6.53;1.50;;;11.40;99.90;;;;;;5011868;28;20066;-67
2022/09/20 03:44:04;;;;;;;7.37;1.77;;;11.40;99.90;;;;;;5014724;28;20521;-67
2022/09/20 03:46:42;;;;;;;7.32;2.10;;;10.90;99.90;;;;;;5021002;28;20038;-67
2022/09/20 03:49:26;;;;;;;6.90;1.60;;;11.90;99.90;;;;;;5027741;28;20495;-67
2022/09/20 03:52:12;;;;;;;8.00;1.40;;;11.40;99.90;;;;;;5013071;28;20045;-67
2022/09/20 03:54:51;;;;;;;5.13;1.33;;;11.70;99.90;;;;;;5012615;28;20045;-67
2022/09/20 03:57:41;;;;;;;4.35;1.35;;;12.00;99.90;;;;;;5016335;28;20045;-67
2022/09/20 04:00:42;;;;;;;5.78;1.25;;;11.20;99.90;;;;;;5016870;28;20525;-67
2022/09/20 04:03:34;;;;;;;5.35;1.20;;;;;;;;;;5010370;28;20117;-67
2022/09/20 04:06:37;;;;;;;7.00;1.48;;;11.70;99.90;;;;;;5002860;28;20045;-67
2022/09/20 04:09:32;;;;;;;16.83;2.17;;;10.90;99.90;;;;;;4986413;28;20138;-67
2022/09/20 04:12:50;;;;;;;5.38;1.50;;;11.90;99.90;;;;;;5011319;28;20034;-66
2022/09/20 04:15:40;;;;;;;4.78;1.25;;;11.50;99.90;;;;;;4903338;28;20046;-67
2022/09/20 04:18:34;;;;;;;5.57;1.55;;;11.20;99.90;;;;;;5006264;28;20038;-67
2022/09/20 04:21:29;;;;;;;6.22;1.05;;;12.10;99.90;;;;;;5012339;28;20041;-67
2022/09/20 04:23:54;;;;;;;4.28;1.05;;;12.00;99.90;;;;;;5007657;28;20041;-67
2022/09/20 04:26:26;;;;;;;7.13;1.30;;;11.30;99.90;;;;;;5002972;28;20077;-67
2022/09/20 04:29:33;;;;;;;6.65;1.23;;;11.60;99.90;;;;;;4993908;28;20293;-67
2022/09/20 04:32:23;;;;;;;7.90;1.42;;;12.20;99.90;;;;;;4973378;28;20058;-67
2022/09/20 04:38:06;;;;;;;6.03;1.58;;;11.30;99.90;;;;;;4970293;28;20479;-64
2022/09/20 04:40:47;;;;;;;6.75;1.50;;;12.00;99.90;;;;;;4995461;28;20072;-65
2022/09/20 04:43:13;;;;;;;7.25;2.30;;;;;;;;;;4991098;28;20046;-64
2022/09/20 04:45:39;;;;;;;5.72;1.30;;;;;;;;;;4993121;28;20035;-65
2022/09/20 04:48:32;;;;;;;5.65;1.50;;;11.80;99.90;;;;;;4975887;28;20046;-65
2022/09/20 04:51:07;;;;;;;5.70;1.50;;;;;;;;;;5010637;28;20109;-65
2022/09/20 04:53:51;;;;;;;10.45;1.50;;;;;;;;;;5010937;28;20042;-65
2022/09/20 04:56:37;;;;;;;12.45;1.88;;;12.40;99.90;;;;;;5004170;28;20037;-65
2022/09/20 04:59:13;;;;;;;6.05;1.52;;;;;;;;;;4995743;28;20519;-65
2022/09/20 05:01:45;;;;;;;6.47;1.42;;;;;;;;;;4995126;28;20042;-65
2022/09/20 05:04:39;;;;;;;7.78;1.50;;;11.20;99.90;;;;;;4987394;28;20120;-65
2022/09/20 05:07:19;;;;;;;8.27;1.55;;;11.70;99.90;;;;;;4987212;28;20034;-66
2022/09/20 05:09:54;;;;;;;6.20;1.42;;;;;;;;;;4969381;28;20038;-65
2022/09/20 05:12:40;;;;;;;8.57;1.70;;;11.80;99.90;;;;;;4992115;28;20042;-65
2022/09/20 05:15:24;;;;;;;6.63;1.50;;;11.20;99.90;;;;;;4991932;28;20545;-65
2022/09/20 05:18:19;;;;;;;5.40;1.33;;;11.90;99.90;;;;;;4989208;28;20553;-65
2022/09/20 05:20:50;;;;;;;;;;;12.40;99.90;;;;;;4977798;28;20049;-65
2022/09/20 05:23:44;;;;;;;8.40;1.52;;;11.90;99.90;;;;;;4994188;28;19925;-65
2022/09/20 05:26:31;;;;;;;5.57;1.38;;;11.10;99.90;;;;;;4995878;28;20050;-65
2022/09/20 05:29:03;;;;;;;6.65;1.70;;;;;;;;;;4995362;28;20108;-65
2022/09/20 05:32:02;;;;;;;8.35;1.40;;;11.40;99.90;;;;;;4995862;28;20488;-67
2022/09/20 05:34:41;;;;;;;7.18;1.60;;;11.70;99.90;;;;;;4993372;28;20052;-67
2022/09/20 05:37:16;;;;;;;12.75;1.83;;;;;;;;;;4999094;28;20117;-67
2022/09/20 05:40:05;;;;;;;7.32;2.10;;;;;;;;;;5009930;28;20125;-67
2022/09/20 05:42:59;;;;;;;7.88;1.58;;;12.00;99.90;;;;;;4993226;28;20046;-67
2022/09/20 05:45:48;;;;;;;6.47;1.70;;;11.00;99.90;;;;;;5017261;28;20124;-68
2022/09/20 05:48:19;;;;;;;6.88;1.98;;;;;;;;;;5011129;28;20042;-68
2022/09/20 05:50:54;;;;;;;9.82;1.75;;;12.10;99.90;;;;;;5009892;28;20400;-67
2022/09/20 05:58:56;;;;;;;8.70;2.33;;;11.20;99.90;;;;;;5029204;28;20056;-63
2022/09/20 06:01:32;;;;;;;7.82;1.67;;;10.80;99.90;;;;;;5032229;28;20045;-63
2022/09/20 06:04:12;;;;;;;7.85;2.17;;;11.30;99.90;;;;;;5034125;28;20032;-64
2022/09/20 06:07:14;;;;;;;10.48;1.70;;;11.90;99.90;;;;;;5035693;28;20045;-63
2022/09/20 06:10:01;;;;;;;7.18;1.70;;;11.10;99.90;;;;;;5016800;28;20127;-64
2022/09/20 06:12:39;;;;;;;5.60;1.73;;;11.90;99.90;;;;;;5034919;28;20515;-64
2022/09/20 06:15:11;;;;;;;4.90;1.50;;;11.60;1.00;;;;;;5033598;28;20107;-63
2022/09/20 06:18:05;;;;;;;7.25;1.70;;;11.60;99.90;;;;;;5035084;28;20037;-63
2022/09/20 06:20:47;;;;;;;9.85;2.38;;;11.90;99.90;;;;;;5033282;28;20076;-63
2022/09/20 06:23:14;;;;;;;8.10;1.60;;;12.00;99.90;;;;;;5033182;28;20037;-63
2022/09/20 06:26:09;;;;;;;7.97;1.50;;;11.40;99.90;;;;;;5017453;28;20132;-63
2022/09/20 06:28:40;;;;;;;7.50;1.42;;;12.00;99.90;;;;;;5033657;28;20038;-63
2022/09/20 06:31:07;;;;;;;7.80;1.75;;;11.70;1.00;;;;;;5035562;28;20079;-64
2022/09/20 06:33:43;;;;;;;6.53;1.38;;;11.80;94.70;;;;;;5036284;28;20112;-64
2022/09/20 06:42:10;;;;;;;6.07;1.67;;;11.90;1.00;;;;;;5003751;28;20084;-63
2022/09/20 06:44:42;;;;;;;7.45;1.35;;;12.30;95.90;;;;;;5036473;28;20446;-63
2022/09/20 06:47:12;;;;;;;7.38;1.65;;;11.90;99.90;;;;;;5036349;28;20038;-63
2022/09/20 06:49:41;;;;;;;5.53;1.38;;;12.20;35.00;;;;;;5034987;28;20041;-64
2022/09/20 06:52:11;;;;;;;5.93;2.10;;;12.70;99.90;;;;;;5034770;28;20041;-64
2022/09/20 06:54:37;;;;;;;9.95;1.48;;;12.40;1.00;;;;;;5033729;28;20040;-64
2022/09/20 06:57:05;;;;;;;6.07;1.38;;;11.50;99.90;;;;;;5035384;28;20033;-64
2022/09/20 06:59:31;;;;;;;7.57;1.13;;;13.00;1.00;;;;;;5035775;28;20048;-64
2022/09/20 07:01:57;;;;;;;7.05;1.35;;;11.70;97.70;;;;;;5034305;28;20034;-64
2022/09/20 07:04:23;;;;;;;6.65;1.50;;;12.60;1.00;;;;;;5035539;28;20152;-64
2022/09/20 07:06:49;;;;;;;7.22;1.42;;;12.60;99.90;;;;;;5033473;28;20041;-64
2022/09/20 07:09:16;;;;;;;8.00;1.30;;;12.40;1.00;;;;;;5012056;28;20041;-64
2022/09/20 07:11:43;;;;;;;6.10;1.52;;;12.20;99.90;;;;;;5026967;28;20034;-65
2022/09/20 07:14:09;;;;;;;4.90;1.27;;;11.90;99.90;;;;;;5029715;28;20371;-64
2022/09/20 07:16:35;;;;;;;5.15;1.30;;;12.00;99.90;;;;;;5016586;28;20033;-64
2022/09/20 07:19:02;;;;;;;4.00;1.20;;;12.00;99.90;;;;;;5031598;28;20297;-64
2022/09/20 07:21:28;;;;;;;5.82;1.30;;;11.90;97.80;;;;;;5034007;28;20041;-64
2022/09/20 07:23:54;;;;;;;7.85;1.40;;;;;;;;;;5016998;28;20438;-64
2022/09/20 07:26:25;;;;;;;6.15;1.30;;;11.40;62.40;;;;;;5029115;28;20447;-64
2022/09/20 07:28:52;;;;;;;5.93;1.50;;;12.30;99.90;;;;;;5019040;28;20066;-64
2022/09/20 07:31:19;;;;;;;9.70;1.60;;;11.30;1.00;;;;;;5018973;28;20134;-64
2022/09/20 07:33:45;;;;;;;7.63;1.30;;;11.40;99.90;;;;;;5020804;28;20044;-64
2022/09/20 07:36:12;;;;;;;4.97;1.92;;;11.60;99.90;;;;;;5024794;28;20033;-64
2022/09/20 07:38:40;;;;;;;7.45;1.60;;;;;;;;;;5026462;28;20045;-64
2022/09/20 07:41:11;;;;;;;7.07;1.40;;;12.20;99.90;;;;;;5028202;28;20454;-64
2022/09/20 07:43:39;;;;;;;6.55;1.25;;;11.60;99.90;;;;;;5011716;28;20037;-67
2022/09/20 07:46:15;;;;;;;6.60;1.20;;;11.80;10.40;;;;;;5028159;28;20042;-65
2022/09/20 07:48:44;;;;;;;7.32;1.30;;;11.90;99.90;;;;;;5032046;28;20132;-65
2022/09/20 07:51:15;;;;;;;7.60;1.75;;;12.40;99.90;;;;;;5034685;28;20042;-65
2022/09/20 07:53:41;;;;;;;14.18;1.50;;;11.80;1.00;;;;;;5035331;28;20101;-65
2022/09/20 07:56:13;;;;;;;6.88;1.40;;;12.40;1.00;;;;;;5030468;28;20029;-64
2022/09/20 07:58:40;;;;;;;7.05;1.20;;;12.50;99.90;;;;;;5013880;28;20454;-66
2022/09/20 08:01:09;;;;;;;6.68;1.23;;;11.90;1.00;;;;;;5034087;28;20033;-67
2022/09/20 08:03:41;;;;;;;5.07;1.25;;;12.30;99.90;;;;;;5035169;28;20128;-66
2022/09/20 08:06:10;;;;;;;4.75;1.40;;;12.30;1.00;;;;;;5024833;28;20033;-64
2022/09/20 08:08:40;;;;;;;4.95;1.10;;;;;;;;;;4946971;28;20373;-63
2022/09/20 08:11:28;;;;;;;7.38;1.58;;;12.80;99.90;;;;;;5005432;28;20183;-64
2022/09/20 08:13:58;;;;;;;4.70;1.10;;;13.30;99.90;;;;;;5033746;28;20045;-64
2022/09/20 08:16:30;;;;;;;5.05;1.20;;;12.90;99.90;;;;;;5036326;28;20072;-64
2022/09/20 08:19:01;;;;;;;5.35;1.45;;;12.80;99.90;;;;;;5033391;28;20113;-65
2022/09/20 08:21:32;;;;;;;5.00;1.20;;;13.80;1.00;;;;;;5015655;28;20060;-65
2022/09/20 08:24:08;;;;;;;5.35;1.30;;;14.30;1.00;;;;;;5033706;28;20133;-65
2022/09/20 08:26:35;;;;;;;6.82;1.60;;;13.80;96.10;;;;;;5031706;28;20069;-65
2022/09/20 08:34:06;;;;;;;6.03;1.63;;;13.50;99.90;;;;;;5003577;28;20046;-64
2022/09/20 08:36:34;;;;;;;7.60;1.60;;;14.20;99.90;;;;;;4986845;28;20042;-65
2022/09/20 08:39:00;;;;;;;7.85;1.63;;;14.10;1.00;;;;;;4989179;28;20034;-65
2022/09/20 08:41:27;;;;;;;5.80;1.67;;;;;;;;;;4977270;28;20464;-64
2022/09/20 08:44:01;;;;;;;8.65;1.30;;;14.60;99.90;;;;;;4976341;28;20042;-64
2022/09/20 08:46:34;;;;;;;8.95;1.73;;;14.30;99.90;;;;;;5001582;28;20078;-64
2022/09/20 08:49:03;;;;;;;7.38;1.40;;;14.30;1.00;;;;;;4985781;28;20035;-64
2022/09/20 08:51:33;;;;;;;6.78;1.33;;;14.60;99.90;;;;;;4991375;28;20526;-64
2022/09/20 08:54:00;;;;;;;7.28;1.35;;;14.80;99.90;;;;;;4993568;28;20030;-64
2022/09/20 08:56:32;;;;;;;6.78;1.30;;;14.50;99.90;;;;;;4990046;28;20046;-64
2022/09/20 08:58:58;;;;;;;8.02;1.48;;;14.40;99.90;;;;;;4982145;28;20106;-64
2022/09/20 09:01:28;;;;;;;7.35;1.30;;;14.50;99.90;;;;;;4984971;28;20369;-64
2022/09/20 09:04:15;;;;;;;6.03;1.17;;;14.20;99.90;;;;;;4982793;28;20066;-64
2022/09/20 09:06:42;;;;;;;5.82;1.40;;;14.50;99.90;;;;;;4971706;28;20034;-64
2022/09/20 09:09:24;;;;;;;6.20;1.20;;;14.60;99.90;;;;;;4987298;28;20035;-64
2022/09/20 09:11:52;;;;;;;8.65;1.38;;;14.60;99.90;;;;;;4991096;28;20046;-64
2022/09/20 09:17:21;;;;;;;6.88;1.40;;;14.70;99.90;;;;;;4990455;28;20046;-64
2022/09/20 09:20:14;;;;;;;3.92;1.08;;;14.50;99.90;;;;;;4991302;28;20055;-64
2022/09/20 09:22:44;;;;;;;5.43;1.08;;;14.60;61.90;;;;;;4963539;28;20465;-64
2022/09/20 09:25:33;;;;;;;8.27;1.35;;;14.60;61.20;;;;;;4995807;28;20058;-64
2022/09/20 09:28:05;;;;;;;6.65;2.88;;;14.80;1.00;;;;;;4997660;28;20043;-65
2022/09/20 09:30:41;;;;;;;4.13;1.08;;;14.80;99.90;;;;;;4996978;28;20044;-65
2022/09/20 09:33:29;;;;;;;6.45;1.30;;;15.20;99.90;;;;;;4988680;28;20050;-65
2022/09/20 09:36:13;;;;;;;5.20;1.00;;;15.50;1.00;;;;;;5008438;28;20034;-65
2022/09/20 09:38:44;;;;;;;6.45;1.13;;;15.10;1.00;;;;;;4994069;28;20535;-65
2022/09/20 09:41:25;;;;;;;5.88;1.20;;;15.10;1.00;;;;;;4981789;28;20030;-65
2022/09/20 09:44:05;;;;;;;6.75;1.23;;;15.10;99.90;;;;;;5003281;28;20045;-65
2022/09/20 09:46:42;;;;;;;6.32;1.08;;;15.50;99.90;;;;;;5008868;28;20081;-65
2022/09/20 09:49:19;;;;;;;7.53;1.40;;;16.10;99.90;;;;;;4893942;28;20427;-65
2022/09/20 09:52:19;;;;;;;6.00;1.10;;;15.50;1.00;;;;;;4994969;28;20039;-65
2022/09/20 09:54:50;;;;;;;4.97;1.30;;;15.80;99.90;;;;;;4999766;28;20054;-65
2022/09/20 09:57:32;;;;;;;6.80;1.13;;;15.80;84.70;;;;;;4996615;28;20053;-65
2022/09/20 10:00:09;;;;;;;3.95;0.90;;;16.00;99.90;;;;;;4979517;28;20046;-65
2022/09/20 10:05:32;;;;;;;6.40;1.33;;;15.90;99.90;;;;;;4841385;26;20569;-65
2022/09/20 10:08:14;;;;;;;5.50;1.17;;;16.00;99.90;;;;;;5007188;28;20036;-66
2022/09/20 10:11:22;;;;;;;4.10;1.00;;;16.30;99.90;;;;;;5013430;28;20042;-67
2022/09/20 10:13:55;;;;;;;5.53;1.30;;;;;;;;;;4903162;28;20046;-65
2022/09/20 10:16:59;;;;;;;8.85;1.90;;;15.90;99.90;;;;;;5019979;28;20373;-65
2022/09/20 10:20:08;;;;;;;6.18;1.20;;;16.20;99.90;;;;;;5027949;28;20048;-65
2022/09/20 10:22:45;;;;;;;5.82;1.08;;;15.90;99.90;;;;;;5014576;28;20034;-66
2022/09/20 10:25:35;;;;;;;9.52;1.52;;;15.60;97.40;;;;;;5001544;28;20560;-65
2022/09/20 10:28:53;;;;;;;7.32;1.63;;;16.00;1.00;;;;;;4975250;28;20511;-65
2022/09/20 10:32:00;;;;;;;8.65;1.88;;;16.00;99.90;;;;;;4940346;28;20038;-65
2022/09/20 10:34:38;;;;;;;5.15;1.60;;;;;;;;;;4938197;29;20155;-66
2022/09/20 10:37:18;;;;;;;7.25;1.30;;;16.20;1.00;;;;;;4952709;28;20198;-64
2022/09/20 10:39:54;;;;;;;6.72;1.30;;;15.60;99.90;;;;;;4997603;28;20427;-65
2022/09/20 10:45:35;;;;;;;5.32;1.10;;;16.20;99.90;;;;;;5017151;28;20634;-66
2022/09/20 10:48:16;;;;;;;6.57;1.10;;;16.70;1.00;;;;;;4955634;28;20053;-65
2022/09/20 10:51:24;;;;;;;4.72;1.10;;;17.00;99.90;;;;;;5021090;28;20038;-64
2022/09/20 10:53:59;;;;;;;9.10;1.88;;;16.90;99.90;;;;;;4998595;28;20396;-64
2022/09/20 10:56:49;;;;;;;8.07;1.33;;;16.80;99.90;;;;;;5015024;28;20116;-64
2022/09/20 10:59:57;;;;;;;4.53;1.20;;;17.30;99.90;;;;;;5009991;28;20045;-65
2022/09/20 11:05:52;;;;;;;4.82;1.88;;;17.70;99.90;;;;;;4998305;28;20476;-64
2022/09/20 11:08:33;;;;;;;7.38;1.30;;;17.10;99.90;;;;;;4955821;28;20046;-64
2022/09/20 11:11:24;;;;;;;8.82;1.27;;;17.10;99.90;;;;;;4997813;28;20037;-65
2022/09/20 11:14:06;;;;;;;6.32;1.95;;;17.10;99.90;;;;;;4997116;28;20043;-65
2022/09/20 11:16:36;;;;;;;4.10;1.15;;;16.90;99.90;;;;;;4986579;28;20031;-65
2022/09/20 11:19:33;;;;;;;11.15;2.72;;;16.70;99.90;;;;;;4991314;28;20046;-65
2022/09/20 11:22:12;;;;;;;6.53;1.40;;;17.00;1.00;;;;;;4988822;28;20035;-65
2022/09/20 11:24:46;;;;;;;7.53;1.45;;;17.10;1.00;;;;;;4987934;28;20452;-65
2022/09/20 11:27:36;;;;;;;7.00;1.48;;;17.00;99.90;;;;;;4993851;28;20128;-65
2022/09/20 11:30:21;;;;;;;7.80;1.55;;;17.30;99.90;;;;;;4976041;28;20037;-65
2022/09/20 11:32:56;;;;;;;7.13;1.60;;;17.00;99.90;;;;;;4982712;28;20060;-65
2022/09/20 11:35:43;;;;;;;10.10;1.85;;;17.00;1.00;;;;;;4997672;28;20046;-64
2022/09/20 11:38:23;;;;;;;6.20;1.33;;;16.90;99.90;;;;;;4983593;28;20043;-64
2022/09/20 11:41:24;;;;;;;9.88;1.90;;;17.20;99.90;;;;;;4993252;28;20045;-64
2022/09/20 11:43:52;;;;;;;8.10;1.85;;;16.80;99.90;;;;;;4988461;28;20050;-64
2022/09/20 11:46:37;;;;;;;5.55;1.10;;;17.50;99.90;;;;;;4995406;28;20073;-64
2022/09/20 11:49:17;;;;;;;;;;;17.00;99.90;;;;;;4997636;28;20408;-64
2022/09/20 11:52:02;;;;;;;5.75;1.50;;;16.80;99.90;;;;;;4996738;28;19929;-64
2022/09/20 11:54:38;;;;;;;7.90;1.83;;;16.30;99.90;;;;;;5054617;23;20081;-66
2022/09/20 11:57:06;;;;;;;6.50;1.65;;;17.00;99.90;;;;;;5025205;28;20042;-66
2022/09/20 12:00:07;;;;;;;4.85;1.40;;;17.40;99.90;;;;;;5022471;28;20517;-65
2022/09/20 12:02:43;;;;;;;6.38;1.33;;;17.00;99.90;;;;;;5020845;28;20534;-66
2022/09/20 12:05:42;;;;;;;6.05;1.73;;;17.70;99.90;;;;;;5006824;28;20170;-66
2022/09/20 12:08:24;;;;;;;5.70;1.73;;;17.40;99.90;;;;;;5005466;28;20034;-66
2022/09/20 12:11:05;;;;;;;5.95;1.63;;;18.00;99.90;;;;;;4985557;28;20059;-66
2022/09/20 12:13:39;;;;;;;6.43;1.60;;;;;;;;;;4959606;28;20430;-66
2022/09/20 12:18:33;;;;;;;4.78;1.33;;;18.30;29.90;;;;;;5009750;28;20057;-65
2022/09/20 12:21:17;;;;;;;7.35;1.10;;;17.80;99.90;;;;;;5008830;28;20039;-65
2022/09/20 12:24:01;;;;;;;7.10;1.60;;;18.10;99.90;;;;;;5005569;28;20064;-65
2022/09/20 12:26:27;;;;;;;6.85;1.20;;;17.80;1.00;;;;;;5008079;28;20033;-65
2022/09/20 12:28:59;;;;;;;7.05;1.23;;;18.00;99.90;;;;;;5009506;28;20046;-65
2022/09/20 12:31:28;;;;;;;3.25;0.95;;;18.80;99.90;;;;;;4993664;28;20065;-65
2022/09/20 12:34:02;;;;;;;5.43;1.30;;;18.50;99.90;;;;;;4993671;28;20487;-66
2022/09/20 12:36:35;;;;;;;5.93;1.20;;;18.30;69.90;;;;;;5006658;28;20108;-64
2022/09/20 12:39:11;;;;;;;6.85;1.10;;;18.90;99.90;;;;;;5010502;28;20488;-65
2022/09/20 12:41:50;;;;;;;6.07;1.13;;;19.80;99.90;;;;;;5008457;28;20507;-66
2022/09/20 12:44:39;;;;;;;8.05;1.13;;;22.60;99.90;;;;;;4987122;28;20181;-65
2022/09/20 12:47:10;;;;;;;4.07;1.10;;;23.50;99.90;;;;;;5009734;28;20065;-65
2022/09/20 12:53:02;;;;;;;5.97;1.10;;;22.80;99.90;;;;;;5000717;28;20042;-65
2022/09/20 12:55:28;;;;;;;5.25;1.13;;;21.90;99.90;;;;;;5010745;28;20052;-64
2022/09/20 12:58:05;;;;;;;6.72;1.02;;;22.90;99.90;;;;;;4982495;28;20026;-65
2022/09/20 13:00:45;;;;;;;4.22;1.00;;;24.50;99.90;;;;;;4917813;28;20420;-65
2022/09/20 13:03:14;;;;;;;4.72;1.05;;;26.70;99.90;;;;;;4902602;28;20213;-65
2022/09/20 13:08:33;;;;;;;6.10;1.10;;;29.50;99.90;;;;;;5009870;28;20420;-66
2022/09/20 13:11:12;;;;;;;4.53;1.00;;;31.30;99.90;;;;;;5006716;28;20400;-66
2022/09/20 13:14:00;;;;;;;7.05;1.88;;;32.20;99.90;;;;;;5002141;28;20456;-65
2022/09/20 13:16:41;;;;;;;5.38;1.40;;;32.80;99.90;;;;;;4989045;28;20045;-65
2022/09/20 13:24:19;;;;;;;5.05;1.70;;;33.30;99.90;;;;;;5029520;28;20388;-65
2022/09/20 13:26:48;;;;;;;5.60;1.42;;;34.00;99.90;;;;;;5031103;28;20038;-65
2022/09/20 13:29:32;;;;;;;5.93;1.65;;;34.50;99.90;;;;;;4993002;28;20220;-65
2022/09/20 13:32:27;;;;;;;7.75;1.50;;;35.90;99.90;;;;;;5014103;28;20088;-65
2022/09/20 13:35:15;;;;;;;4.88;1.10;;;36.20;99.90;;;;;;5015426;28;20499;-65
2022/09/20 13:37:50;;;;;;;6.85;2.00;;;37.40;99.90;;;;;;5030858;28;20045;-65
2022/09/20 13:40:39;;;;;;;5.32;1.50;;;36.70;99.90;;;;;;4920588;28;20452;-65
2022/09/20 13:43:26;;;;;;;5.75;1.23;;;35.50;99.90;;;;;;5030115;28;20045;-65
2022/09/20 13:45:57;;;;;;;6.00;1.10;;;32.90;99.90;;;;;;5029290;28;20053;-65
2022/09/20 13:48:31;;;;;;;5.13;1.30;;;31.60;99.90;;;;;;4950161;28;20200;-65
2022/09/20 13:51:15;;;;;;;5.03;1.35;;;32.40;99.90;;;;;;4926440;28;20342;-65
2022/09/20 13:53:46;;;;;;;5.88;1.45;;;31.10;99.90;;;;;;4974842;28;20038;-66
2022/09/20 13:56:24;;;;;;;5.43;1.10;;;33.60;99.90;;;;;;5030172;28;20082;-66
2022/09/20 13:58:51;;;;;;;5.40;1.15;;;34.70;99.90;;;;;;5004442;28;20121;-66
2022/09/20 14:01:31;;;;;;;5.93;1.30;;;34.80;99.90;;;;;;5009384;28;20030;-66
2022/09/20 14:04:14;;;;;;;5.82;1.00;;;33.10;99.90;;;;;;5029361;28;20065;-65
2022/09/20 14:06:48;;;;;;;4.93;1.30;;;31.00;99.90;;;;;;5028401;28;20112;-66
2022/09/20 14:09:27;;;;;;;5.38;1.40;;;29.40;99.90;;;;;;5011263;28;20129;-66
2022/09/20 14:12:07;;;;;;;6.07;1.52;;;28.80;99.90;;;;;;5008233;28;20431;-65
2022/09/20 14:14:43;;;;;;;5.20;1.05;;;28.50;99.90;;;;;;4973059;28;20113;-65
2022/09/20 14:17:17;;;;;;;5.03;0.95;;;27.80;99.90;;;;;;5033027;28;20069;-65
2022/09/20 14:19:48;;;;;;;;;;;26.70;99.90;;;;;;4999725;28;20095;-65
2022/09/20 14:22:26;;;;;;;4.57;1.15;;;26.60;99.90;;;;;;5032619;28;20004;-64
2022/09/20 14:24:58;;;;;;;5.38;1.20;;;25.40;99.90;;;;;;5033345;28;20042;-64
2022/09/20 14:27:24;;;;;;;5.18;1.17;;;24.80;99.90;;;;;;5015688;28;20130;-64
2022/09/20 14:29:53;;;;;;;3.83;1.23;;;24.40;99.90;;;;;;5024467;28;20081;-65
2022/09/20 14:32:19;;;;;;;6.68;1.30;;;24.70;99.90;;;;;;5031278;28;20099;-65
2022/09/20 14:35:09;;;;;;;6.40;1.20;;;27.40;99.90;;;;;;5033563;28;20509;-65
2022/09/20 14:37:46;;;;;;;5.47;1.48;;;29.20;99.90;;;;;;5032478;28;20033;-65
2022/09/20 14:40:24;;;;;;;4.30;1.30;;;31.70;99.90;;;;;;5028546;28;20510;-66
2022/09/20 14:42:55;;;;;;;4.50;1.25;;;32.40;99.90;;;;;;4940890;28;20477;-65
2022/09/20 14:45:33;;;;;;;6.07;1.30;;;32.60;99.90;;;;;;5029245;28;20072;-65